createdAt,value
2019-01-05T00:00:12.537Z,103603.98
2019-01-05T00:03:01.472Z,103596.98
2019-01-05T00:06:00.929Z,103590.86
2019-01-05T00:08:53.224Z,103592.27
2019-01-05T00:11:49.717Z,103587.98
2019-01-05T00:14:30.515Z,103590.14
2019-01-05T00:17:20.011Z,103595.77
2019-01-05T00:20:12.427Z,103591.94
2019-01-05T00:23:03.007Z,103579.68
2019-01-05T00:25:52.187Z,103587.79
2019-01-05T00:28:58.093Z,103586.03
2019-01-05T00:31:46.041Z,103583.89
2019-01-05T00:34:52.892Z,103570.86
2019-01-05T00:37:33.537Z,103577.92
2019-01-05T00:40:22.706Z,103570.06
2019-01-05T00:43:25.307Z,103565.34
2019-01-05T00:46:31.276Z,103563.59
2019-01-05T00:49:36.177Z,103566.69
2019-01-05T00:52:23.948Z,103568.84
2019-01-05T00:55:11.641Z,103567.58
2019-01-05T00:58:01.978Z,103562.80
2019-01-05T01:00:52.089Z,103565.79
2019-01-05T01:03:36.493Z,103572.27
2019-01-05T01:06:33.146Z,103575.73
2019-01-05T01:09:15.234Z,103574.43
2019-01-05T01:11:58.992Z,103581.78
2019-01-05T01:14:48.653Z,103574.78
2019-01-05T01:17:34.119Z,103577.52
2019-01-05T01:20:28.961Z,103572.75
2019-01-05T01:23:19.980Z,103574.42
2019-01-05T01:26:05.206Z,103577.83
2019-01-05T01:29:13.942Z,103579.18
2019-01-05T01:32:01.445Z,103578.86
2019-01-05T01:34:42.541Z,103579.34
2019-01-05T01:37:36.039Z,103579.36
2019-01-05T01:40:32.247Z,103577.67
2019-01-05T01:43:20.623Z,103577.66
2019-01-05T01:46:22.701Z,103577.66
2019-01-05T01:49:14.800Z,103578.09
2019-01-05T01:52:14.629Z,103573.73
2019-01-05T01:55:11.655Z,103580.72
2019-01-05T01:58:09.506Z,103578.03
2019-01-05T02:00:47.615Z,103575.32
2019-01-05T02:03:42.490Z,103578.78
2019-01-05T02:06:29.634Z,103574.06
2019-01-05T02:09:19.236Z,103575.84
2019-01-05T02:12:17.170Z,103578.86
2019-01-05T02:15:12.141Z,103575.45
2019-01-05T02:18:45.898Z,103575.89
2019-01-05T02:22:50.789Z,103569.73
2019-01-05T02:26:48.100Z,103560.64
2019-01-05T02:30:47.523Z,103550.62
2019-01-05T02:34:52.528Z,103545.39
2019-01-05T02:38:36.857Z,103537.15
2019-01-05T02:42:21.354Z,103533.20
2019-01-05T02:50:24.826Z,103528.47
2019-01-05T02:53:57.578Z,103527.10
2019-01-05T02:58:00.404Z,103518.45
2019-01-05T03:01:41.410Z,103507.20
2019-01-05T03:05:47.088Z,103508.06
2019-01-05T03:09:03.607Z,103508.45
2019-01-05T03:13:00.467Z,103516.27
2019-01-05T03:17:13.329Z,103510.61
2019-01-05T03:25:16.657Z,103494.95
2019-01-05T03:29:25.137Z,103491.41
2019-01-05T03:32:50.008Z,103485.75
2019-01-05T03:36:44.937Z,103474.98
2019-01-05T03:40:17.928Z,103483.25
2019-01-05T03:44:25.264Z,103484.55
2019-01-05T03:48:05.484Z,103483.22
2019-01-05T03:51:58.058Z,103486.71
2019-01-05T03:56:01.691Z,103479.75
2019-01-05T03:59:41.837Z,103485.82
2019-01-05T04:08:19.211Z,103477.94
2019-01-05T04:12:20.835Z,103490.06
2019-01-05T04:16:12.695Z,103487.01
2019-01-05T04:20:06.477Z,103479.69
2019-01-05T04:24:12.611Z,103475.37
2019-01-05T04:28:02.149Z,103467.61
2019-01-05T04:31:59.441Z,103474.09
2019-01-05T04:36:01.899Z,103466.69
2019-01-05T04:39:41.834Z,103466.66
2019-01-05T04:48:34.418Z,103474.83
2019-01-05T04:52:18.038Z,103472.19
2019-01-05T04:56:04.396Z,103469.18
2019-01-05T04:59:40.831Z,103468.69
2019-01-05T05:03:26.069Z,103457.86
2019-01-05T05:07:09.790Z,103458.72
2019-01-05T05:10:59.663Z,103460.02
2019-01-05T05:14:46.043Z,103454.42
2019-01-05T05:18:48.439Z,103456.56
2019-01-05T05:22:49.386Z,103456.69
2019-01-05T05:26:34.121Z,103444.58
2019-01-05T05:30:37.396Z,103441.52
2019-01-05T05:34:07.716Z,103442.85
2019-01-05T05:38:05.855Z,103436.34
2019-01-05T05:42:13.179Z,103431.54
2019-01-05T05:49:55.309Z,103434.56
2019-01-05T05:54:03.689Z,103446.67
2019-01-05T05:58:10.421Z,103450.06
2019-01-05T06:02:17.045Z,103447.50
2019-01-05T06:06:19.010Z,103442.69
2019-01-05T06:10:01.916Z,103442.70
2019-01-05T06:18:32.988Z,103439.27
2019-01-05T06:22:06.045Z,103442.77
2019-01-05T06:26:21.932Z,103437.56
2019-01-05T06:29:53.568Z,103442.73
2019-01-05T06:33:55.153Z,103441.84
2019-01-05T06:37:44.074Z,103437.48
2019-01-05T06:41:35.307Z,103439.59
2019-01-05T06:45:21.735Z,103438.38
2019-01-05T06:54:10.954Z,103431.87
2019-01-05T06:58:10.748Z,103442.69
2019-01-05T07:02:09.593Z,103434.92
2019-01-05T07:06:22.366Z,103436.67
2019-01-05T07:10:25.882Z,103441.08
2019-01-05T07:13:52.276Z,103450.17
2019-01-05T07:22:06.248Z,103458.44
2019-01-05T07:25:46.534Z,103460.15
2019-01-05T07:29:38.813Z,103468.02
2019-01-05T07:33:59.341Z,103465.44
2019-01-05T07:37:54.630Z,103463.61
2019-01-05T07:42:02.907Z,103459.22
2019-01-05T07:45:28.616Z,103467.11
2019-01-05T07:49:19.560Z,103467.52
2019-01-05T07:53:07.865Z,103465.36
2019-01-05T07:57:15.519Z,103469.27
2019-01-05T08:05:42.551Z,103470.66
2019-01-05T08:09:34.504Z,103474.51
2019-01-05T08:13:37.335Z,103480.61
2019-01-05T08:17:18.742Z,103484.07
2019-01-05T08:20:58.905Z,103482.73
2019-01-05T08:24:35.005Z,103480.16
2019-01-05T08:28:20.315Z,103492.78
2019-01-05T08:32:39.422Z,103484.48
2019-01-05T08:41:03.622Z,103469.71
2019-01-05T08:44:51.372Z,103472.31
2019-01-05T08:48:45.948Z,103477.56
2019-01-05T08:52:24.046Z,103490.17
2019-01-05T08:56:28.200Z,103491.03
2019-01-05T09:00:08.206Z,103494.11
2019-01-05T09:03:39.271Z,103498.88
2019-01-05T09:07:21.690Z,103500.19
2019-01-05T09:11:04.379Z,103502.80
2019-01-05T09:19:18.119Z,103498.44
2019-01-05T09:23:22.677Z,103505.39
2019-01-05T09:27:20.593Z,103498.04
2019-01-05T09:31:07.087Z,103508.05
2019-01-05T09:35:14.608Z,103504.98
2019-01-05T09:38:50.394Z,103495.42
2019-01-05T09:42:56.580Z,103488.89
2019-01-05T09:46:40.567Z,103495.44
2019-01-05T09:50:28.315Z,103495.83
2019-01-05T09:58:03.813Z,103499.83
2019-01-05T10:02:06.187Z,103498.50
2019-01-05T10:06:08.203Z,103505.88
2019-01-05T10:10:16.783Z,103503.73
2019-01-05T10:14:07.403Z,103498.06
2019-01-05T10:18:05.247Z,103492.42
2019-01-05T10:22:21.811Z,103489.81
2019-01-05T10:31:01.091Z,103485.89
2019-01-05T10:34:44.481Z,103480.25
2019-01-05T10:38:23.066Z,103483.71
2019-01-05T10:42:06.755Z,103481.55
2019-01-05T10:46:30.190Z,103475.45
2019-01-05T10:50:25.473Z,103472.88
2019-01-05T10:54:22.503Z,103472.44
2019-01-05T11:02:19.182Z,103470.69
2019-01-05T11:06:07.223Z,103471.56
2019-01-05T11:09:40.731Z,103469.39
2019-01-05T11:13:28.672Z,103463.30
2019-01-05T11:17:08.989Z,103459.39
2019-01-05T11:24:56.927Z,103454.14
2019-01-05T11:28:48.245Z,103453.27
2019-01-05T11:32:58.299Z,103450.70
2019-01-05T11:41:04.021Z,103449.83
2019-01-05T11:44:53.144Z,103453.30
2019-01-05T11:48:44.840Z,103440.24
2019-01-05T11:52:58.802Z,103442.85
2019-01-05T11:56:52.666Z,103438.91
2019-01-05T12:00:53.034Z,103440.66
2019-01-05T12:04:17.983Z,103443.30
2019-01-05T12:08:21.475Z,103443.30
2019-01-05T12:12:17.067Z,103425.48
2019-01-05T12:16:02.297Z,103427.66
2019-01-05T12:23:49.917Z,103416.76
2019-01-05T12:27:39.674Z,103425.89
2019-01-05T12:31:31.660Z,103419.36
2019-01-05T12:35:27.654Z,103418.08
2019-01-05T12:39:31.717Z,103427.64
2019-01-05T12:43:50.596Z,103420.72
2019-01-05T12:47:53.520Z,103420.28
2019-01-05T12:56:00.692Z,103408.09
2019-01-05T12:59:43.051Z,103411.53
2019-01-05T13:03:37.344Z,103415.91
2019-01-05T13:07:31.287Z,103404.62
2019-01-05T13:11:40.674Z,103410.66
2019-01-05T13:15:31.632Z,103409.36
2019-01-05T13:19:28.050Z,103412.44
2019-01-05T13:23:15.793Z,103407.23
2019-01-05T13:27:13.309Z,103406.34
2019-01-05T13:36:02.404Z,103413.75
2019-01-05T13:40:01.110Z,103430.25
2019-01-05T13:43:44.929Z,103421.56
2019-01-05T13:47:47.378Z,103428.95
2019-01-05T13:51:42.756Z,103442.41
2019-01-05T13:54:48.391Z,103438.52
2019-01-05T13:57:54.044Z,103441.96
2019-01-05T14:00:44.185Z,103437.64
2019-01-05T14:06:45.917Z,103433.73
2019-01-05T14:09:33.464Z,103436.78
2019-01-05T14:12:30.329Z,103445.45
2019-01-05T14:15:10.438Z,103448.52
2019-01-05T14:18:07.441Z,103446.77
2019-01-05T14:20:57.107Z,103447.62
2019-01-05T14:23:43.426Z,103446.30
2019-01-05T14:26:33.553Z,103442.38
2019-01-05T14:29:29.770Z,103442.84
2019-01-05T14:32:19.727Z,103449.81
2019-01-05T14:35:08.761Z,103443.73
2019-01-05T14:37:54.927Z,103445.02
2019-01-05T14:40:44.474Z,103444.16
2019-01-05T14:43:44.457Z,103444.58
2019-01-05T14:46:32.805Z,103443.72
2019-01-05T14:49:15.602Z,103442.41
2019-01-05T14:52:05.691Z,103446.78
2019-01-05T14:55:08.403Z,103446.76
2019-01-05T14:58:01.025Z,103446.34
2019-01-05T15:00:53.267Z,103450.25
2019-01-05T15:03:44.422Z,103442.42
2019-01-05T15:06:47.374Z,103451.55
2019-01-05T15:09:33.437Z,103447.66
2019-01-05T15:12:28.918Z,103447.23
2019-01-05T15:15:13.304Z,103444.61
2019-01-05T15:18:02.046Z,103443.30
2019-01-05T15:20:49.580Z,103443.75
2019-01-05T15:23:35.966Z,103444.61
2019-01-05T15:26:41.667Z,103449.38
2019-01-05T15:29:44.288Z,103443.27
2019-01-05T15:32:31.879Z,103454.17
2019-01-05T15:35:25.064Z,103458.95
2019-01-05T15:38:15.560Z,103453.74
2019-01-05T15:41:01.820Z,103457.64
2019-01-05T15:43:49.420Z,103458.50
2019-01-05T15:46:42.272Z,103460.64
2019-01-05T15:49:38.648Z,103458.92
2019-01-05T15:52:31.908Z,103462.81
2019-01-05T15:55:37.403Z,103461.53
2019-01-05T15:58:34.038Z,103481.94
2019-01-05T16:01:24.495Z,103470.23
2019-01-05T16:04:26.981Z,103471.07
2019-01-05T16:07:13.570Z,103476.28
2019-01-05T16:10:03.846Z,103476.73
2019-01-05T16:12:52.006Z,103474.51
2019-01-05T16:15:53.524Z,103469.33
2019-01-05T16:19:01.875Z,103467.61
2019-01-05T16:21:52.544Z,103472.38
2019-01-05T16:24:43.227Z,103469.34
2019-01-05T16:27:30.707Z,103472.84
2019-01-05T16:30:16.952Z,103467.14
2019-01-05T16:33:07.162Z,103473.68
2019-01-05T16:36:00.508Z,103471.96
2019-01-05T16:38:46.773Z,103477.56
2019-01-05T16:41:40.553Z,103478.03
2019-01-05T16:44:29.979Z,103476.70
2019-01-05T16:47:20.433Z,103478.38
2019-01-05T16:50:14.179Z,103482.77
2019-01-05T16:53:17.094Z,103478.83
2019-01-05T16:56:03.172Z,103483.11
2019-01-05T16:58:53.846Z,103485.15
2019-01-05T17:01:47.095Z,103489.55
2019-01-05T17:04:37.526Z,103484.89
2019-01-05T17:07:25.306Z,103496.58
2019-01-05T17:10:16.887Z,103491.81
2019-01-05T17:13:16.728Z,103502.17
2019-01-05T17:16:03.203Z,103494.36
2019-01-05T17:18:52.391Z,103493.47
2019-01-05T17:21:37.022Z,103496.08
2019-01-05T17:24:27.150Z,103503.44
2019-01-05T17:27:22.660Z,103502.18
2019-01-05T17:30:29.247Z,103509.14
2019-01-05T17:33:15.489Z,103520.41
2019-01-05T17:35:59.437Z,103509.23
2019-01-05T17:38:45.316Z,103507.97
2019-01-05T17:41:37.594Z,103512.70
2019-01-05T17:44:33.802Z,103514.45
2019-01-05T17:47:28.734Z,103509.27
2019-01-05T17:50:20.331Z,103503.17
2019-01-05T17:53:18.723Z,103505.37
2019-01-05T17:56:12.001Z,103507.49
2019-01-05T17:59:02.158Z,103501.87
2019-01-05T18:01:49.973Z,103501.02
2019-01-05T18:04:36.368Z,103494.97
2019-01-05T18:07:30.117Z,103502.40
2019-01-05T18:10:15.726Z,103501.51
2019-01-05T18:13:01.879Z,103501.51
2019-01-05T18:15:48.219Z,103499.79
2019-01-05T18:18:58.645Z,103503.17
2019-01-05T18:21:47.355Z,103505.73
2019-01-05T18:24:34.305Z,103500.56
2019-01-05T18:27:29.916Z,103496.25
2019-01-05T18:30:32.668Z,103501.83
2019-01-05T18:33:29.192Z,103499.22
2019-01-05T18:36:15.318Z,103503.44
2019-01-05T18:39:01.571Z,103502.97
2019-01-05T18:41:52.261Z,103510.64
2019-01-05T18:44:51.695Z,103501.11
2019-01-05T18:47:40.356Z,103503.43
2019-01-05T18:50:22.482Z,103501.73
2019-01-05T18:53:17.187Z,103508.17
2019-01-05T18:56:07.593Z,103505.23
2019-01-05T18:58:54.264Z,103495.80
2019-01-05T19:01:47.587Z,103498.23
2019-01-05T19:04:34.059Z,103503.83
2019-01-05T19:07:21.867Z,103497.83
2019-01-05T19:10:08.377Z,103497.66
2019-01-05T19:12:56.749Z,103500.23
2019-01-05T19:15:59.229Z,103506.38
2019-01-05T19:18:49.744Z,103504.58
2019-01-05T19:21:48.770Z,103492.46
2019-01-05T19:24:34.687Z,103484.66
2019-01-05T19:27:22.256Z,103466.97
2019-01-05T19:30:12.403Z,103461.77
2019-01-05T19:32:58.635Z,103446.19
2019-01-05T19:35:55.436Z,103455.31
2019-01-05T19:38:58.054Z,103457.95
2019-01-05T19:41:48.419Z,103461.45
2019-01-05T19:44:38.755Z,103477.00
2019-01-05T19:47:24.680Z,103479.23
2019-01-05T19:50:12.947Z,103479.65
2019-01-05T19:53:18.188Z,103480.09
2019-01-05T19:56:06.663Z,103480.09
2019-01-05T19:58:58.107Z,103470.53
2019-01-05T20:02:00.913Z,103473.13
2019-01-05T20:04:53.987Z,103476.63
2019-01-05T20:07:53.708Z,103463.98
2019-01-05T20:10:40.114Z,103462.22
2019-01-05T20:13:30.574Z,103464.91
2019-01-05T20:16:20.821Z,103462.72
2019-01-05T20:19:11.393Z,103478.30
2019-01-05T20:21:54.212Z,103482.20
2019-01-05T20:24:42.020Z,103481.64
2019-01-05T20:27:28.247Z,103481.98
2019-01-05T20:30:20.646Z,103482.09
2019-01-05T20:33:29.979Z,103482.60
2019-01-05T20:36:27.015Z,103480.80
2019-01-05T20:39:26.583Z,103485.10
2019-01-05T20:42:12.955Z,103488.21
2019-01-05T20:45:12.461Z,103490.92
2019-01-05T20:48:12.357Z,103477.03
2019-01-05T20:50:58.810Z,103477.49
2019-01-05T20:54:01.554Z,103482.70
2019-01-05T20:56:49.238Z,103469.67
2019-01-05T20:59:38.073Z,103489.66
2019-01-05T21:02:24.880Z,103483.63
2019-01-05T21:05:15.412Z,103493.16
2019-01-05T21:08:01.672Z,103489.16
2019-01-05T21:11:01.197Z,103487.45
2019-01-05T21:13:47.406Z,103481.44
2019-01-05T21:16:38.039Z,103487.57
2019-01-05T21:19:24.235Z,103494.11
2019-01-05T21:22:18.030Z,103477.14
2019-01-05T21:25:08.426Z,103481.44
2019-01-05T21:27:54.408Z,103487.57
2019-01-05T21:31:00.582Z,103496.62
2019-01-05T21:33:48.290Z,103496.12
2019-01-05T21:36:34.841Z,103496.52
2019-01-05T21:39:22.456Z,103498.28
2019-01-05T21:42:25.373Z,103487.91
2019-01-05T21:45:11.789Z,103484.93
2019-01-05T21:47:58.123Z,103496.21
2019-01-05T21:50:54.290Z,103495.31
2019-01-05T21:53:42.072Z,103493.56
2019-01-05T21:56:29.836Z,103491.41
2019-01-05T21:59:20.150Z,103491.03
2019-01-05T22:02:27.460Z,103491.89
2019-01-05T22:05:25.538Z,103493.22
2019-01-05T22:08:13.113Z,103489.70
2019-01-05T22:11:11.767Z,103484.04
2019-01-05T22:13:51.179Z,103492.27
2019-01-05T22:16:37.419Z,103494.87
2019-01-05T22:19:25.963Z,103495.80
2019-01-05T22:22:25.545Z,103498.73
2019-01-05T22:25:11.917Z,103499.52
2019-01-05T22:28:07.114Z,103499.92
2019-01-05T22:30:53.461Z,103503.88
2019-01-05T22:33:39.800Z,103506.42
2019-01-05T22:36:26.340Z,103496.93
2019-01-05T22:39:12.350Z,103502.48
2019-01-05T22:41:58.357Z,103506.38
2019-01-05T22:45:01.186Z,103496.47
2019-01-05T22:47:48.761Z,103497.43
2019-01-05T22:50:34.843Z,103498.37
2019-01-05T22:53:22.389Z,103487.54
2019-01-05T22:56:28.092Z,103492.27
2019-01-05T22:59:27.685Z,103499.22
2019-01-05T23:02:13.967Z,103494.88
2019-01-05T23:05:10.380Z,103496.56
2019-01-05T23:08:10.119Z,103494.83
2019-01-05T23:10:58.891Z,103497.52
2019-01-05T23:14:02.385Z,103484.11
2019-01-05T23:16:58.683Z,103494.05
2019-01-05T23:19:44.788Z,103478.86
2019-01-05T23:22:36.508Z,103486.20
2019-01-05T23:25:35.581Z,103492.17
2019-01-05T23:28:31.806Z,103483.45
2019-01-05T23:31:28.400Z,103484.70
2019-01-05T23:34:27.973Z,103483.52
2019-01-05T23:37:14.719Z,103487.05
2019-01-05T23:40:11.331Z,103479.64
2019-01-05T23:42:57.668Z,103483.95
2019-01-05T23:45:44.147Z,103482.61
2019-01-05T23:48:34.466Z,103484.40
2019-01-05T23:51:18.981Z,103478.73
2019-01-05T23:54:12.473Z,103475.69
2019-01-05T23:57:12.060Z,103476.94
2019-01-05T23:59:58.606Z,103473.49
